Time;durP1;ratioP1;P1;durP2;ratioP2;P2;SDS_P1;SDS_P2;PMS_P1;PMS_P2;Temp;Humidity;BMP_temperature;BMP_pressure;BME280_temperature;BME280_humidity;BME280_pressure;Samples;Min_cycle;Max_cycle;Signal;HPM_P1;HPM_P2
2023/12/27 00:01:25;;;;;;;4.80;2.60;;;6.60;92.90;;;;;;5025658;28;20029;-66
2023/12/27 00:03:50;;;;;;;3.63;2.20;;;6.60;92.90;;;;;;5022902;28;20440;-65
2023/12/27 00:06:16;;;;;;;5.10;2.33;;;6.60;92.90;;;;;;5022128;28;20422;-65
2023/12/27 00:08:41;;;;;;;4.20;2.67;;;6.60;92.90;;;;;;5026218;28;20443;-66
2023/12/27 00:11:07;;;;;;;3.78;2.28;;;6.60;92.90;;;;;;5025727;28;20026;-66
2023/12/27 00:13:32;;;;;;;5.45;2.47;;;6.60;92.90;;;;;;5023169;28;20025;-65
2023/12/27 00:15:58;;;;;;;5.35;2.30;;;6.60;92.90;;;;;;5022011;28;20113;-66
2023/12/27 00:18:23;;;;;;;3.00;2.15;;;6.50;92.90;;;;;;5021886;28;20128;-66
2023/12/27 00:20:49;;;;;;;4.10;2.15;;;6.50;92.90;;;;;;5027366;28;20112;-65
2023/12/27 00:23:15;;;;;;;4.25;2.60;;;6.50;92.90;;;;;;5025942;28;20140;-68
2023/12/27 00:25:40;;;;;;;5.32;2.50;;;6.40;92.90;;;;;;5031771;28;20030;-67
2023/12/27 00:28:06;;;;;;;3.92;2.20;;;6.30;93.10;;;;;;5029963;28;20021;-66
2023/12/27 00:30:31;;;;;;;3.17;2.00;;;6.40;93.20;;;;;;5023998;28;20036;-65
2023/12/27 00:32:57;;;;;;;4.63;2.15;;;6.40;93.10;;;;;;5025378;28;20774;-66
2023/12/27 00:35:23;;;;;;;2.80;2.00;;;6.30;92.90;;;;;;5021448;28;20041;-65
2023/12/27 00:37:48;;;;;;;4.65;2.28;;;6.30;93.00;;;;;;5027801;28;20482;-67
2023/12/27 00:40:14;;;;;;;2.15;1.70;;;6.20;93.00;;;;;;5029009;28;20026;-65
2023/12/27 00:42:40;;;;;;;3.10;2.00;;;6.20;93.20;;;;;;5025571;28;20018;-67
2023/12/27 00:45:06;;;;;;;4.03;2.22;;;6.20;93.30;;;;;;5026866;28;20093;-67
2023/12/27 00:47:32;;;;;;;2.67;1.95;;;6.20;93.20;;;;;;5024302;28;20159;-66
2023/12/27 00:49:57;;;;;;;2.60;1.60;;;6.30;93.10;;;;;;5025475;28;20029;-67
2023/12/27 00:52:23;;;;;;;2.05;1.60;;;6.30;93.10;;;;;;5026970;28;20037;-66
2023/12/27 00:54:48;;;;;;;2.78;1.67;;;6.30;93.00;;;;;;5025728;28;20056;-67
2023/12/27 00:57:14;;;;;;;4.10;2.00;;;6.30;93.00;;;;;;5026010;28;20033;-67
2023/12/27 00:59:39;;;;;;;2.92;1.60;;;6.20;93.00;;;;;;5026662;28;20029;-66
2023/12/27 01:02:06;;;;;;;2.15;1.60;;;6.20;93.10;;;;;;5025624;28;20017;-65
2023/12/27 01:04:33;;;;;;;4.82;1.90;;;6.20;93.20;;;;;;5022903;28;20026;-67
2023/12/27 01:06:58;;;;;;;2.88;1.70;;;6.20;93.20;;;;;;5028342;28;20013;-67
2023/12/27 01:09:25;;;;;;;3.58;1.77;;;6.20;93.20;;;;;;5029156;28;20126;-67
2023/12/27 01:11:51;;;;;;;3.00;1.67;;;6.20;93.10;;;;;;5029671;28;20017;-67
2023/12/27 01:14:19;;;;;;;3.65;1.80;;;6.20;93.10;;;;;;5026895;28;20029;-66
2023/12/27 01:16:44;;;;;;;2.08;1.40;;;6.20;93.10;;;;;;5025990;28;20029;-67
2023/12/27 01:19:11;;;;;;;1.52;1.42;;;6.20;93.10;;;;;;5026664;28;20021;-67
2023/12/27 01:21:37;;;;;;;3.75;1.80;;;6.20;93.10;;;;;;5023243;28;20495;-67
2023/12/27 01:24:02;;;;;;;2.60;1.90;;;6.30;93.20;;;;;;5023501;28;20029;-65
2023/12/27 01:26:28;;;;;;;3.90;1.88;;;6.20;93.10;;;;;;5029670;28;20032;-66
2023/12/27 01:28:53;;;;;;;2.75;1.80;;;6.20;93.20;;;;;;5022672;28;20655;-67
2023/12/27 01:31:19;;;;;;;2.70;1.80;;;6.20;93.30;;;;;;5022373;28;20061;-67
2023/12/27 01:33:45;;;;;;;2.70;1.90;;;6.20;93.30;;;;;;5025133;28;20442;-66
2023/12/27 01:36:10;;;;;;;2.42;1.70;;;6.20;93.30;;;;;;5030322;28;20112;-64
2023/12/27 01:38:36;;;;;;;2.22;1.70;;;6.20;93.30;;;;;;5028611;28;20041;-65
2023/12/27 01:41:02;;;;;;;1.85;1.63;;;6.30;93.30;;;;;;5027508;28;20041;-66
2023/12/27 01:43:28;;;;;;;2.42;1.55;;;6.30;93.20;;;;;;5026439;28;20017;-67
2023/12/27 01:45:53;;;;;;;3.25;1.75;;;6.30;93.10;;;;;;5023794;28;20349;-67
2023/12/27 01:48:20;;;;;;;2.67;1.80;;;6.30;93.10;;;;;;5032026;28;20500;-65
2023/12/27 01:50:50;;;;;;;2.63;1.67;;;6.20;93.10;;;;;;5023605;28;20447;-66
2023/12/27 01:53:20;;;;;;;2.50;1.90;;;6.20;93.20;;;;;;5021403;28;20044;-65
2023/12/27 01:55:50;;;;;;;3.28;1.65;;;6.30;93.30;;;;;;5024002;28;20053;-64
2023/12/27 01:58:16;;;;;;;2.40;1.65;;;6.30;93.30;;;;;;5028299;28;20368;-66
2023/12/27 02:00:45;;;;;;;4.10;1.70;;;6.30;93.20;;;;;;5014486;28;20068;-67
2023/12/27 02:03:11;;;;;;;2.78;1.75;;;6.30;93.20;;;;;;5015992;28;20026;-66
2023/12/27 02:05:37;;;;;;;2.42;1.88;;;6.30;93.20;;;;;;5024729;28;20037;-65
2023/12/27 02:08:05;;;;;;;2.55;1.58;;;6.30;93.20;;;;;;5024954;28;20185;-67
2023/12/27 02:10:31;;;;;;;2.00;1.42;;;6.30;93.20;;;;;;5018212;28;20022;-65
2023/12/27 02:13:02;;;;;;;1.98;1.40;;;6.40;93.20;;;;;;5029316;28;20030;-67
2023/12/27 02:15:28;;;;;;;2.63;1.60;;;6.40;93.20;;;;;;5021947;28;20030;-67
2023/12/27 02:17:55;;;;;;;2.97;1.55;;;6.50;93.10;;;;;;5021691;28;20037;-67
2023/12/27 02:20:21;;;;;;;2.38;1.35;;;6.50;93.10;;;;;;5023520;28;20018;-66
2023/12/27 02:22:49;;;;;;;1.40;1.30;;;6.40;93.10;;;;;;5023385;28;20026;-65
2023/12/27 02:25:15;;;;;;;1.58;1.48;;;6.40;93.20;;;;;;5023962;28;20080;-67
2023/12/27 02:27:40;;;;;;;1.40;1.30;;;6.50;93.30;;;;;;5016940;28;20025;-68
2023/12/27 02:30:06;;;;;;;2.45;1.50;;;6.60;93.20;;;;;;5021076;28;20018;-67
2023/12/27 02:32:32;;;;;;;2.65;1.60;;;6.60;93.20;;;;;;5026201;28;20060;-67
2023/12/27 02:34:58;;;;;;;2.30;1.40;;;6.60;93.40;;;;;;5028566;28;20069;-66
2023/12/27 02:37:23;;;;;;;3.60;1.52;;;6.60;93.20;;;;;;5026412;28;20353;-65
2023/12/27 02:39:49;;;;;;;3.58;1.30;;;6.60;93.10;;;;;;5033936;28;20108;-66
2023/12/27 02:42:14;;;;;;;3.15;1.30;;;6.60;93.10;;;;;;5027364;28;20476;-67
2023/12/27 02:44:40;;;;;;;2.60;1.70;;;6.70;93.10;;;;;;5025614;28;20033;-67
2023/12/27 02:47:07;;;;;;;1.58;1.17;;;6.60;93.10;;;;;;5023178;28;20021;-67
2023/12/27 02:49:33;;;;;;;1.60;1.30;;;6.60;93.10;;;;;;5020395;28;20021;-67
2023/12/27 02:51:58;;;;;;;1.20;1.10;;;6.60;93.20;;;;;;5024709;28;20056;-65
2023/12/27 02:54:24;;;;;;;2.53;1.60;;;6.50;93.20;;;;;;5029824;28;20061;-67
2023/12/27 02:56:49;;;;;;;1.73;1.27;;;6.50;93.30;;;;;;5019875;28;20041;-66
2023/12/27 02:59:15;;;;;;;2.75;1.52;;;6.50;93.40;;;;;;5023026;28;20554;-68
2023/12/27 03:01:40;;;;;;;1.85;1.20;;;6.50;93.50;;;;;;5017139;28;20041;-65
2023/12/27 03:04:06;;;;;;;1.95;1.40;;;6.50;93.50;;;;;;5023519;28;20070;-67
2023/12/27 03:06:32;;;;;;;2.38;1.48;;;6.60;93.60;;;;;;5022267;28;20033;-66
2023/12/27 03:08:57;;;;;;;2.15;1.40;;;6.50;93.50;;;;;;5015613;28;20021;-67
2023/12/27 03:11:23;;;;;;;1.88;1.40;;;6.50;93.60;;;;;;5019886;28;20029;-66
2023/12/27 03:13:48;;;;;;;1.50;1.20;;;6.50;93.60;;;;;;5015101;28;20033;-67
2023/12/27 03:16:18;;;;;;;2.40;1.60;;;6.50;93.70;;;;;;5016091;28;20025;-65
2023/12/27 03:18:43;;;;;;;1.67;1.30;;;6.50;93.80;;;;;;5016782;28;20464;-66
2023/12/27 03:21:09;;;;;;;3.70;1.83;;;6.50;93.80;;;;;;5032473;28;20105;-66
2023/12/27 03:23:34;;;;;;;1.90;1.50;;;6.50;93.80;;;;;;5020896;28;20032;-66
2023/12/27 03:26:00;;;;;;;2.22;1.40;;;6.50;93.90;;;;;;5022404;28;20034;-64
2023/12/27 03:28:25;;;;;;;2.50;1.27;;;6.60;93.90;;;;;;5030621;28;20026;-67
2023/12/27 03:30:51;;;;;;;1.20;1.10;;;6.60;93.90;;;;;;5023386;28;20083;-67
2023/12/27 03:33:16;;;;;;;2.97;1.70;;;6.60;93.80;;;;;;5029088;28;20076;-66
2023/12/27 03:35:42;;;;;;;3.30;2.03;;;6.60;93.80;;;;;;5027945;28;20033;-66
2023/12/27 03:38:07;;;;;;;3.97;1.60;;;6.60;93.90;;;;;;5022691;28;20025;-67
2023/12/27 03:40:33;;;;;;;2.83;1.70;;;6.60;93.90;;;;;;5023043;28;20032;-67
2023/12/27 03:42:59;;;;;;;3.10;1.73;;;6.60;93.90;;;;;;5023459;28;20028;-65
2023/12/27 03:45:25;;;;;;;2.53;1.70;;;6.60;93.90;;;;;;5024128;28;20021;-66
2023/12/27 03:47:50;;;;;;;1.92;1.38;;;6.60;94.00;;;;;;5014079;28;20072;-68
2023/12/27 03:50:16;;;;;;;2.10;1.50;;;6.60;94.00;;;;;;5014466;28;20083;-67
2023/12/27 03:52:44;;;;;;;1.77;1.35;;;6.60;94.00;;;;;;5026761;28;20438;-67
2023/12/27 03:55:10;;;;;;;2.58;1.60;;;6.50;94.00;;;;;;5015935;28;20037;-67
2023/12/27 03:57:36;;;;;;;3.17;1.85;;;6.50;94.00;;;;;;5019842;28;20026;-67
2023/12/27 04:00:04;;;;;;;3.05;1.70;;;6.50;94.10;;;;;;5022518;28;20069;-67
2023/12/27 04:02:29;;;;;;;2.33;1.60;;;6.40;94.20;;;;;;5011070;28;20681;-67
2023/12/27 04:04:55;;;;;;;5.78;2.30;;;6.40;94.30;;;;;;5015139;28;20022;-66
2023/12/27 04:07:20;;;;;;;4.40;1.90;;;6.40;94.40;;;;;;5011610;28;20021;-67
2023/12/27 04:09:46;;;;;;;3.28;1.88;;;6.40;94.50;;;;;;5014425;28;20105;-65
2023/12/27 04:12:11;;;;;;;3.05;2.17;;;6.40;94.60;;;;;;5022182;28;20040;-67
2023/12/27 04:14:37;;;;;;;3.55;2.13;;;6.30;94.60;;;;;;5019864;28;20105;-67
2023/12/27 04:17:02;;;;;;;5.40;2.90;;;6.30;94.70;;;;;;5021720;28;20021;-66
2023/12/27 04:19:28;;;;;;;5.47;2.60;;;6.30;94.80;;;;;;5027402;28;20492;-66
2023/12/27 04:21:54;;;;;;;6.10;3.15;;;6.30;94.90;;;;;;5017833;28;20126;-67
2023/12/27 04:24:19;;;;;;;4.82;2.50;;;6.20;95.00;;;;;;5020578;28;20032;-63
2023/12/27 04:26:45;;;;;;;4.32;2.10;;;6.20;95.10;;;;;;5029125;28;20025;-66
2023/12/27 04:29:10;;;;;;;5.15;2.20;;;6.20;95.20;;;;;;5026268;28;20387;-67
2023/12/27 04:31:37;;;;;;;4.35;2.00;;;6.20;95.20;;;;;;5026332;28;20033;-67
2023/12/27 04:34:03;;;;;;;4.95;2.13;;;6.20;95.30;;;;;;5023293;28;20022;-67
2023/12/27 04:36:28;;;;;;;4.57;2.80;;;6.30;95.40;;;;;;5022925;28;20041;-67
2023/12/27 04:38:54;;;;;;;4.18;2.60;;;6.20;95.30;;;;;;5027458;28;20033;-66
2023/12/27 04:41:19;;;;;;;5.25;2.78;;;6.20;95.40;;;;;;5019342;28;20022;-64
2023/12/27 04:43:45;;;;;;;3.35;2.03;;;6.20;95.50;;;;;;5024426;28;20037;-67
2023/12/27 04:46:10;;;;;;;3.05;1.95;;;6.30;95.50;;;;;;5017216;28;20018;-67
2023/12/27 04:48:36;;;;;;;6.10;3.08;;;6.20;95.50;;;;;;5020338;28;20038;-67
2023/12/27 04:51:02;;;;;;;4.55;2.70;;;6.20;95.70;;;;;;5022448;28;20029;-65
2023/12/27 04:53:28;;;;;;;6.38;3.75;;;6.20;95.90;;;;;;5027201;28;20522;-64
2023/12/27 04:55:53;;;;;;;8.25;3.47;;;6.10;96.10;;;;;;5019880;28;20018;-67
2023/12/27 04:58:19;;;;;;;10.10;4.10;;;6.10;96.30;;;;;;5024643;28;20033;-64
2023/12/27 05:00:45;;;;;;;8.95;3.70;;;6.10;96.50;;;;;;5026854;28;20112;-67
2023/12/27 05:03:10;;;;;;;7.53;3.40;;;6.10;96.70;;;;;;5014442;28;20021;-65
2023/12/27 05:05:36;;;;;;;6.70;3.42;;;6.10;96.70;;;;;;5025722;28;20480;-65
2023/12/27 05:08:02;;;;;;;5.88;3.10;;;6.10;96.80;;;;;;5022526;28;20031;-66
2023/12/27 05:10:27;;;;;;;6.32;2.95;;;6.10;96.80;;;;;;5023617;28;20030;-64
2023/12/27 05:12:53;;;;;;;5.60;3.30;;;6.20;96.80;;;;;;5027486;28;20061;-65
2023/12/27 05:15:19;;;;;;;4.93;3.03;;;6.10;96.90;;;;;;5032487;28;20026;-65
2023/12/27 05:17:45;;;;;;;7.25;3.45;;;6.10;96.90;;;;;;5027147;28;20494;-66
2023/12/27 05:20:11;;;;;;;6.53;3.53;;;6.10;97.10;;;;;;5035513;28;20047;-65
2023/12/27 05:22:39;;;;;;;6.93;3.72;;;6.10;97.20;;;;;;5030230;28;20021;-65
2023/12/27 05:25:06;;;;;;;10.95;4.10;;;6.10;97.20;;;;;;5028613;28;20575;-65
2023/12/27 05:27:32;;;;;;;6.72;3.10;;;6.10;97.40;;;;;;5028571;28;20029;-65
2023/12/27 05:29:58;;;;;;;4.85;2.90;;;6.10;97.50;;;;;;5028153;28;20068;-66
2023/12/27 05:32:24;;;;;;;4.93;3.00;;;6.10;97.50;;;;;;5032292;28;20032;-64
2023/12/27 05:34:51;;;;;;;8.43;3.60;;;6.10;97.60;;;;;;5025773;28;20029;-65
2023/12/27 05:37:17;;;;;;;6.38;3.05;;;6.20;97.60;;;;;;5016677;28;20379;-66
2023/12/27 05:39:42;;;;;;;5.35;2.70;;;6.20;97.60;;;;;;5024632;28;20040;-66
2023/12/27 05:42:09;;;;;;;6.20;3.30;;;6.20;97.70;;;;;;5028865;28;20036;-64
2023/12/27 05:44:35;;;;;;;6.05;2.50;;;6.20;97.70;;;;;;5016224;28;20025;-66
2023/12/27 05:47:01;;;;;;;7.05;3.67;;;6.20;97.80;;;;;;5029404;28;20496;-65
2023/12/27 05:49:27;;;;;;;7.25;3.63;;;6.20;97.80;;;;;;5018372;28;20025;-65
2023/12/27 05:51:52;;;;;;;7.93;2.90;;;6.20;97.90;;;;;;5031945;28;20036;-66
2023/12/27 05:54:18;;;;;;;5.63;2.95;;;6.20;97.80;;;;;;5026290;28;20037;-66
2023/12/27 05:56:43;;;;;;;5.40;2.70;;;6.20;97.90;;;;;;5031393;28;20033;-66
2023/12/27 05:59:09;;;;;;;6.30;2.97;;;6.20;97.90;;;;;;5027274;28;20028;-65
2023/12/27 06:01:35;;;;;;;7.38;3.03;;;6.30;97.90;;;;;;5029595;28;20021;-67
2023/12/27 06:04:04;;;;;;;6.88;3.33;;;6.20;98.00;;;;;;5025733;28;20033;-66
2023/12/27 06:06:32;;;;;;;9.15;2.70;;;6.20;98.00;;;;;;5029571;28;20017;-68
2023/12/27 06:08:58;;;;;;;5.32;2.65;;;6.30;98.00;;;;;;5031615;28;20021;-65
2023/12/27 06:11:23;;;;;;;5.07;2.20;;;6.30;98.00;;;;;;5029285;28;20495;-67
2023/12/27 06:13:49;;;;;;;9.23;3.10;;;6.30;97.90;;;;;;5029345;28;20864;-65
2023/12/27 06:16:15;;;;;;;4.93;2.53;;;6.30;97.90;;;;;;5025790;28;20021;-64
2023/12/27 06:18:40;;;;;;;4.63;2.50;;;6.30;98.00;;;;;;5020473;28;20499;-65
2023/12/27 06:21:06;;;;;;;7.00;2.60;;;6.40;98.00;;;;;;5027701;28;20554;-66
2023/12/27 06:23:32;;;;;;;5.72;2.55;;;6.40;98.00;;;;;;5028457;28;20569;-66
2023/12/27 06:25:57;;;;;;;4.03;2.00;;;6.40;98.00;;;;;;5028947;28;20673;-67
2023/12/27 06:28:23;;;;;;;4.57;2.70;;;6.50;98.00;;;;;;5024435;28;20022;-64
2023/12/27 06:30:48;;;;;;;8.70;2.80;;;6.50;98.00;;;;;;5031514;28;20094;-65
2023/12/27 06:33:14;;;;;;;5.55;2.92;;;6.50;98.20;;;;;;5021929;28;20037;-65
2023/12/27 06:35:40;;;;;;;4.03;2.40;;;6.40;98.00;;;;;;5031477;28;20034;-67
2023/12/27 06:38:05;;;;;;;6.22;3.08;;;6.40;98.00;;;;;;5024803;28;20029;-64
2023/12/27 06:40:31;;;;;;;6.13;3.17;;;6.40;98.20;;;;;;5027199;28;20025;-65
2023/12/27 06:42:57;;;;;;;6.72;3.17;;;6.40;98.30;;;;;;5029449;28;20112;-68
2023/12/27 06:45:22;;;;;;;5.70;2.58;;;6.40;98.30;;;;;;5026017;28;20053;-65
2023/12/27 06:47:49;;;;;;;5.65;3.42;;;6.40;98.30;;;;;;5031163;28;20028;-66
2023/12/27 06:50:14;;;;;;;6.43;3.90;;;6.40;98.40;;;;;;5029019;28;20139;-66
2023/12/27 06:52:40;;;;;;;5.38;3.10;;;6.40;98.50;;;;;;5029449;28;20109;-69
2023/12/27 06:55:07;;;;;;;4.97;2.90;;;6.50;98.50;;;;;;5026015;28;20519;-67
2023/12/27 06:57:33;;;;;;;7.18;2.88;;;6.50;98.40;;;;;;5028673;28;20547;-66
2023/12/27 06:59:58;;;;;;;5.47;3.03;;;6.50;98.50;;;;;;5026940;28;20093;-65
2023/12/27 07:02:24;;;;;;;8.43;3.75;;;6.50;98.60;;;;;;5026407;28;20022;-65
2023/12/27 07:04:49;;;;;;;7.78;3.83;;;6.40;98.80;;;;;;5025938;28;20049;-65
2023/12/27 07:07:15;;;;;;;7.78;3.42;;;6.40;98.80;;;;;;5017177;28;20026;-65
2023/12/27 07:09:42;;;;;;;6.10;3.33;;;6.40;98.90;;;;;;5020700;28;20061;-66
2023/12/27 07:12:09;;;;;;;10.00;4.13;;;6.40;98.90;;;;;;5020812;28;20532;-64
2023/12/27 07:14:35;;;;;;;8.50;3.80;;;6.40;99.10;;;;;;5027573;28;20057;-65
2023/12/27 07:17:04;;;;;;;7.00;3.83;;;6.40;99.10;;;;;;5030276;28;20037;-67
2023/12/27 07:19:30;;;;;;;7.70;3.50;;;6.40;99.20;;;;;;5022426;28;20021;-65
2023/12/27 07:21:55;;;;;;;7.93;2.95;;;6.50;99.20;;;;;;5025036;28;20037;-65
2023/12/27 07:24:22;;;;;;;7.68;4.22;;;6.50;99.20;;;;;;5015427;28;20018;-67
2023/12/27 07:26:48;;;;;;;9.75;4.43;;;6.50;99.30;;;;;;5027205;28;20075;-65
2023/12/27 07:29:13;;;;;;;10.18;3.90;;;6.50;99.60;;;;;;5023010;28;20021;-65
2023/12/27 07:31:39;;;;;;;8.10;3.58;;;6.50;99.70;;;;;;5032698;28;20028;-66
2023/12/27 07:34:05;;;;;;;8.63;3.85;;;6.50;99.60;;;;;;5023673;28;20033;-64
2023/12/27 07:36:30;;;;;;;11.10;4.30;;;6.50;99.80;;;;;;5024229;28;20267;-66
2023/12/27 07:38:56;;;;;;;9.57;3.95;;;6.50;99.90;;;;;;5025031;28;20029;-66
2023/12/27 07:41:21;;;;;;;6.03;3.22;;;6.50;99.90;;;;;;5024562;28;20025;-66
2023/12/27 07:43:47;;;;;;;7.65;3.60;;;6.50;99.90;;;;;;5022672;28;20022;-64
2023/12/27 07:46:12;;;;;;;5.60;2.67;;;6.60;99.90;;;;;;5016531;28;20098;-65
2023/12/27 07:48:38;;;;;;;7.15;3.25;;;6.60;99.90;;;;;;5026431;28;20404;-66
2023/12/27 07:51:03;;;;;;;7.35;3.00;;;6.70;99.80;;;;;;5021307;28;20057;-65
2023/12/27 07:53:29;;;;;;;6.00;3.05;;;6.70;99.70;;;;;;5036536;28;20033;-65
2023/12/27 07:55:55;;;;;;;5.05;2.95;;;6.70;99.70;;;;;;5017101;28;20479;-64
2023/12/27 07:58:20;;;;;;;5.93;2.90;;;6.70;99.70;;;;;;5020842;28;20025;-65
2023/12/27 08:00:46;;;;;;;5.53;2.65;;;6.70;99.80;;;;;;5020352;28;20140;-65
2023/12/27 08:03:11;;;;;;;4.05;2.30;;;6.70;99.80;;;;;;5025958;28;20014;-64
2023/12/27 08:05:37;;;;;;;8.25;3.08;;;6.70;99.80;;;;;;5018565;28;20594;-66
2023/12/27 08:08:03;;;;;;;7.65;3.28;;;6.70;99.80;;;;;;5024213;28;20013;-65
2023/12/27 08:10:30;;;;;;;7.63;3.10;;;6.70;99.90;;;;;;5021074;28;20030;-65
2023/12/27 08:12:57;;;;;;;8.30;3.10;;;6.70;99.90;;;;;;5012105;28;20408;-65
2023/12/27 08:15:22;;;;;;;5.05;2.60;;;6.70;99.90;;;;;;5014115;28;20076;-65
2023/12/27 08:17:48;;;;;;;6.65;3.03;;;6.70;99.90;;;;;;5015664;28;20026;-65
2023/12/27 08:20:13;;;;;;;6.22;3.00;;;6.70;99.90;;;;;;5026627;28;20029;-66
2023/12/27 08:22:39;;;;;;;7.35;3.38;;;6.80;99.90;;;;;;5022379;28;20029;-65
2023/12/27 08:25:09;;;;;;;4.93;2.83;;;6.80;99.90;;;;;;5018617;28;20033;-65
2023/12/27 08:27:36;;;;;;;5.25;2.75;;;6.80;99.90;;;;;;5020607;28;20040;-64
2023/12/27 08:30:04;;;;;;;6.15;3.10;;;6.80;99.90;;;;;;5022703;28;20056;-65
2023/12/27 08:32:30;;;;;;;5.65;2.60;;;6.80;99.90;;;;;;5026152;28;20037;-64
2023/12/27 08:34:55;;;;;;;5.15;3.00;;;6.80;99.90;;;;;;5021543;28;20068;-65
2023/12/27 08:37:21;;;;;;;8.35;3.25;;;6.80;99.90;;;;;;5022607;28;20029;-65
2023/12/27 08:39:48;;;;;;;5.80;3.20;;;6.80;99.90;;;;;;5023980;28;20033;-65
2023/12/27 08:42:14;;;;;;;5.72;2.85;;;6.80;99.90;;;;;;5024383;28;20475;-65
2023/12/27 08:44:39;;;;;;;3.83;2.53;;;6.80;99.90;;;;;;5026956;28;20033;-65
2023/12/27 08:47:05;;;;;;;4.47;2.80;;;6.80;99.90;;;;;;5026302;28;20104;-65
2023/12/27 08:49:31;;;;;;;5.70;2.60;;;6.80;99.90;;;;;;5029095;28;20124;-65
2023/12/27 08:51:56;;;;;;;5.78;2.95;;;6.80;99.90;;;;;;5024956;28;20021;-65
2023/12/27 08:54:22;;;;;;;4.65;2.67;;;6.80;99.90;;;;;;5024944;28;20026;-65
2023/12/27 08:56:47;;;;;;;3.58;2.67;;;6.90;99.90;;;;;;5026439;28;20021;-66
2023/12/27 08:59:13;;;;;;;2.70;2.00;;;6.90;99.90;;;;;;5029495;28;20490;-65
2023/12/27 09:01:39;;;;;;;4.10;2.15;;;7.00;99.90;;;;;;5024871;28;20038;-66
2023/12/27 09:04:04;;;;;;;3.95;2.67;;;7.00;99.90;;;;;;5023798;28;20037;-67
2023/12/27 09:06:31;;;;;;;5.20;3.03;;;7.00;99.90;;;;;;5026871;28;20027;-67
2023/12/27 09:08:56;;;;;;;3.75;2.50;;;7.00;99.90;;;;;;5026655;28;20630;-65
2023/12/27 09:11:22;;;;;;;4.95;2.60;;;7.00;99.90;;;;;;5027859;28;20025;-67
2023/12/27 09:13:47;;;;;;;3.63;2.08;;;7.10;99.90;;;;;;5026212;28;20029;-66
2023/12/27 09:16:13;;;;;;;4.80;2.17;;;7.20;99.90;;;;;;5025281;28;20646;-66
2023/12/27 09:18:39;;;;;;;4.80;3.25;;;7.20;99.90;;;;;;5026651;28;20500;-67
2023/12/27 09:21:06;;;;;;;3.03;2.30;;;7.10;99.90;;;;;;5024644;28;20068;-66
2023/12/27 09:23:31;;;;;;;4.57;3.08;;;7.10;99.90;;;;;;5026629;28;20021;-66
2023/12/27 09:25:57;;;;;;;3.70;2.35;;;7.20;99.90;;;;;;5025159;28;20044;-67
2023/12/27 09:28:25;;;;;;;4.60;2.80;;;7.20;99.90;;;;;;5030609;28;20098;-66
2023/12/27 09:30:51;;;;;;;3.45;2.10;;;7.20;99.90;;;;;;5027676;28;20033;-67
2023/12/27 09:33:17;;;;;;;3.80;2.58;;;7.20;99.90;;;;;;5024869;28;20029;-67
2023/12/27 09:35:42;;;;;;;2.47;2.17;;;7.30;99.90;;;;;;5025967;28;20104;-66
2023/12/27 09:38:08;;;;;;;4.18;2.30;;;7.30;99.90;;;;;;5025780;28;20053;-66
2023/12/27 09:40:33;;;;;;;3.75;2.40;;;7.30;99.90;;;;;;5026389;28;20098;-66
2023/12/27 09:43:03;;;;;;;3.63;1.85;;;7.40;99.90;;;;;;5026332;28;20049;-67
2023/12/27 09:45:32;;;;;;;2.13;1.60;;;7.40;99.90;;;;;;5028855;28;20029;-66
2023/12/27 09:47:59;;;;;;;2.53;1.98;;;7.50;99.90;;;;;;5023432;28;20072;-66
2023/12/27 09:50:25;;;;;;;3.08;2.05;;;7.60;99.90;;;;;;5026883;28;20109;-65
2023/12/27 09:52:52;;;;;;;4.00;2.78;;;7.60;99.90;;;;;;5023719;28;20108;-67
2023/12/27 09:55:18;;;;;;;5.45;3.13;;;7.60;99.90;;;;;;5025185;28;20029;-67
2023/12/27 09:57:46;;;;;;;4.72;3.13;;;7.60;99.90;;;;;;5026116;28;20032;-66
2023/12/27 10:00:13;;;;;;;4.68;2.78;;;7.70;99.90;;;;;;5028523;28;20034;-67
2023/12/27 10:02:44;;;;;;;4.90;3.00;;;7.80;99.90;;;;;;5025304;28;20029;-66
2023/12/27 10:05:26;;;;;;;3.47;2.73;;;7.80;99.90;;;;;;5023532;28;20075;-65
2023/12/27 10:07:51;;;;;;;4.75;2.78;;;7.80;99.90;;;;;;5026589;28;20600;-66
2023/12/27 10:10:18;;;;;;;5.07;2.95;;;7.90;99.90;;;;;;5023145;28;20022;-67
2023/12/27 10:12:44;;;;;;;4.10;2.70;;;7.90;99.90;;;;;;5019470;28;20104;-66
2023/12/27 10:15:12;;;;;;;3.50;2.40;;;8.00;99.90;;;;;;5025604;28;20468;-66
2023/12/27 10:17:38;;;;;;;4.47;2.50;;;8.10;99.90;;;;;;5023373;28;20247;-66
2023/12/27 10:20:06;;;;;;;3.22;2.63;;;8.10;99.90;;;;;;5022247;28;20435;-66
2023/12/27 10:22:32;;;;;;;4.88;3.00;;;8.10;99.90;;;;;;5024606;28;20064;-66
2023/12/27 10:24:57;;;;;;;5.50;3.72;;;8.10;99.90;;;;;;5027206;28;20061;-66
2023/12/27 10:27:23;;;;;;;4.28;2.65;;;8.10;99.90;;;;;;5022744;28;20479;-66
2023/12/27 10:29:48;;;;;;;3.83;2.60;;;8.20;99.90;;;;;;5020923;28;20033;-67
2023/12/27 10:32:17;;;;;;;4.75;2.75;;;8.20;99.90;;;;;;5023563;28;20039;-67
2023/12/27 10:34:42;;;;;;;4.60;3.15;;;8.30;99.90;;;;;;5022338;28;20645;-66
2023/12/27 10:37:11;;;;;;;4.95;2.90;;;8.30;99.90;;;;;;5022031;28;20034;-67
2023/12/27 10:39:44;;;;;;;4.55;3.00;;;8.40;99.90;;;;;;5024091;28;20040;-69
2023/12/27 10:42:16;;;;;;;5.63;3.50;;;8.40;99.90;;;;;;5018864;28;20025;-67
2023/12/27 10:44:48;;;;;;;4.72;3.28;;;8.40;99.90;;;;;;5023238;28;20029;-66
2023/12/27 10:47:17;;;;;;;4.40;3.00;;;8.40;99.90;;;;;;5021458;28;20029;-66
2023/12/27 10:49:46;;;;;;;4.70;3.17;;;8.40;99.90;;;;;;5018239;28;20087;-67
2023/12/27 10:52:13;;;;;;;5.10;2.90;;;8.50;99.90;;;;;;5025294;28;20040;-68
2023/12/27 10:54:44;;;;;;;3.75;2.72;;;8.50;99.90;;;;;;5021856;28;20029;-67
2023/12/27 10:57:17;;;;;;;3.60;2.50;;;8.60;99.90;;;;;;5027703;28;20471;-67
2023/12/27 10:59:47;;;;;;;3.85;2.30;;;8.60;99.90;;;;;;5023631;28;20029;-66
2023/12/27 11:02:13;;;;;;;4.07;2.38;;;8.60;99.90;;;;;;5021408;28;20385;-66
2023/12/27 11:04:42;;;;;;;4.07;2.47;;;8.60;99.90;;;;;;5017821;28;20029;-67
2023/12/27 11:07:09;;;;;;;5.22;3.10;;;8.60;99.90;;;;;;5023788;28;20037;-66
2023/12/27 11:09:38;;;;;;;3.70;2.70;;;8.60;99.90;;;;;;5022499;28;20029;-65
2023/12/27 11:12:06;;;;;;;4.97;2.50;;;8.60;99.90;;;;;;5027054;28;20032;-66
2023/12/27 11:14:35;;;;;;;4.72;2.78;;;8.70;99.90;;;;;;5020481;28;20050;-68
2023/12/27 11:17:03;;;;;;;2.63;1.95;;;8.80;99.90;;;;;;5020243;28;20033;-65
2023/12/27 11:19:31;;;;;;;3.28;2.10;;;8.90;99.90;;;;;;5019861;28;20116;-66
2023/12/27 11:21:57;;;;;;;2.55;2.10;;;8.90;99.90;;;;;;5021950;28;20148;-66
2023/12/27 11:24:23;;;;;;;3.45;2.45;;;8.90;99.90;;;;;;5024095;28;20096;-67
2023/12/27 11:26:58;;;;;;;4.10;2.30;;;8.90;99.90;;;;;;5018139;28;20399;-66
2023/12/27 11:29:25;;;;;;;3.83;2.55;;;8.90;99.90;;;;;;5020033;28;20081;-67
2023/12/27 11:31:53;;;;;;;3.92;2.70;;;8.90;99.90;;;;;;5017770;28;20029;-67
2023/12/27 11:34:18;;;;;;;4.30;2.28;;;8.90;99.90;;;;;;5023991;28;20037;-66
2023/12/27 11:36:49;;;;;;;2.30;1.90;;;9.00;99.90;;;;;;5021889;28;20029;-67
2023/12/27 11:39:19;;;;;;;3.07;2.10;;;9.00;99.90;;;;;;5024136;28;20028;-66
2023/12/27 11:41:45;;;;;;;3.80;1.95;;;9.00;99.90;;;;;;5019335;28;20037;-66
2023/12/27 11:44:14;;;;;;;3.67;2.20;;;9.10;99.90;;;;;;5016031;28;20163;-66
2023/12/27 11:46:42;;;;;;;2.28;1.58;;;9.10;99.90;;;;;;5021445;28;20546;-68
2023/12/27 11:49:08;;;;;;;1.83;1.55;;;9.20;99.90;;;;;;5020073;28;20026;-66
2023/12/27 11:51:38;;;;;;;2.88;1.50;;;9.20;99.90;;;;;;5020525;28;20555;-66
2023/12/27 11:54:08;;;;;;;1.77;1.42;;;9.30;99.90;;;;;;5021190;28;20036;-65
2023/12/27 11:56:36;;;;;;;2.25;1.63;;;9.30;99.90;;;;;;5022617;28;20025;-66
2023/12/27 11:59:06;;;;;;;1.85;1.40;;;9.30;99.90;;;;;;5023451;28;20384;-65
2023/12/27 12:01:36;;;;;;;1.33;1.05;;;9.30;99.90;;;;;;5021770;28;20448;-66
2023/12/27 12:04:38;;;;;;;2.40;1.20;;;9.40;99.90;;;;;;5021610;28;20096;-67
2023/12/27 12:07:33;;;;;;;2.85;1.80;;;9.40;99.90;;;;;;5023264;28;20022;-68
2023/12/27 12:09:59;;;;;;;1.92;1.52;;;9.40;99.90;;;;;;5018873;28;20052;-66
2023/12/27 12:12:25;;;;;;;3.53;1.88;;;9.40;99.90;;;;;;5021168;28;20476;-67
2023/12/27 12:14:54;;;;;;;2.72;1.75;;;9.40;99.90;;;;;;5018579;28;20127;-67
2023/12/27 12:17:20;;;;;;;2.15;1.40;;;9.50;99.90;;;;;;5021091;28;20032;-67
2023/12/27 12:19:48;;;;;;;3.17;1.50;;;9.50;99.90;;;;;;5022660;28;20025;-67
2023/12/27 12:22:15;;;;;;;1.48;1.23;;;9.60;99.90;;;;;;5021323;28;20034;-68
2023/12/27 12:24:42;;;;;;;1.80;1.20;;;9.60;99.90;;;;;;5020907;28;20140;-67
2023/12/27 12:27:10;;;;;;;2.40;1.60;;;9.60;99.90;;;;;;5023407;28;20040;-66
2023/12/27 12:29:36;;;;;;;2.60;1.90;;;9.60;99.90;;;;;;5020467;28;20022;-66
2023/12/27 12:32:01;;;;;;;3.05;1.60;;;9.60;99.90;;;;;;5019795;28;20501;-67
2023/12/27 12:34:29;;;;;;;4.28;2.08;;;9.70;99.90;;;;;;5020690;28;20091;-68
2023/12/27 12:36:54;;;;;;;5.53;1.60;;;9.70;99.90;;;;;;5018316;28;20037;-66
2023/12/27 12:39:21;;;;;;;5.80;1.90;;;9.70;99.90;;;;;;5020668;28;20099;-65
2023/12/27 12:41:48;;;;;;;5.13;2.10;;;9.80;99.90;;;;;;5020226;28;20025;-67
2023/12/27 12:44:13;;;;;;;2.97;1.90;;;9.80;99.90;;;;;;5021600;28;20014;-67
2023/12/27 12:46:40;;;;;;;4.38;2.50;;;9.80;99.90;;;;;;5021586;28;20427;-67
2023/12/27 12:49:06;;;;;;;4.93;2.10;;;9.80;99.90;;;;;;5023407;28;20038;-67
2023/12/27 12:51:32;;;;;;;3.50;2.08;;;9.80;99.90;;;;;;5018566;28;20033;-66
2023/12/27 12:54:00;;;;;;;3.15;1.40;;;9.80;99.90;;;;;;5022059;28;20113;-66